Time;durP1;ratioP1;P1;durP2;ratioP2;P2;SDS_P1;SDS_P2;PMS_P1;PMS_P2;Temp;Humidity;BMP_temperature;BMP_pressure;BME280_temperature;BME280_humidity;BME280_pressure;Samples;Min_cycle;Max_cycle;Signal;HPM_P1;HPM_P2
2023/04/17 00:00:58;;;;;;;23.35;13.32;;;;;;;11.11;66.68;102511.66;5121425;28;20055;-71
2023/04/17 00:03:26;;;;;;;19.95;12.40;;;;;;;11.10;66.74;102505.44;5120963;28;20052;-70
2023/04/17 00:05:55;;;;;;;21.27;13.77;;;;;;;11.10;66.67;102505.44;5118018;28;20143;-69
2023/04/17 00:08:23;;;;;;;22.05;13.57;;;;;;;11.10;66.52;102505.44;5122986;28;20441;-70
2023/04/17 00:10:52;;;;;;;23.95;14.05;;;;;;;11.08;66.61;102502.09;5119095;28;20071;-70
2023/04/17 00:13:31;;;;;;;21.60;14.30;;;;;;;11.06;66.49;102502.28;5122651;28;20051;-69
2023/04/17 00:15:58;;;;;;;24.05;13.25;;;;;;;11.07;66.62;102495.06;5121098;28;20111;-71
2023/04/17 00:18:26;;;;;;;23.90;13.63;;;;;;;11.05;66.70;102495.25;5123199;28;20176;-70
2023/04/17 00:20:55;;;;;;;21.70;14.32;;;;;;;11.06;67.02;102496.91;5114321;28;20335;-70
2023/04/17 00:23:23;;;;;;;22.25;13.88;;;;;;;11.05;66.69;102494.41;5119464;28;20067;-70
2023/04/17 00:25:52;;;;;;;20.83;13.77;;;;;;;11.04;66.82;102493.56;5121730;28;20071;-70
2023/04/17 00:28:19;;;;;;;25.77;13.75;;;;;;;11.04;66.62;102485.50;5111006;28;20048;-71
2023/04/17 00:30:47;;;;;;;22.90;14.38;;;;;;;10.99;66.89;102482.53;5120985;28;20050;-70
2023/04/17 00:33:15;;;;;;;24.65;13.25;;;;;;;11.00;66.74;102488.75;5112309;28;20128;-70
2023/04/17 00:35:43;;;;;;;19.40;13.18;;;;;;;10.98;66.88;102483.53;5122439;28;20110;-71
2023/04/17 00:38:11;;;;;;;21.48;13.50;;;;;;;10.98;66.78;102474.66;5120614;28;20052;-70
2023/04/17 00:40:38;;;;;;;23.63;14.32;;;;;;;10.96;66.78;102480.22;5119467;28;20051;-70
2023/04/17 00:43:07;;;;;;;25.25;14.50;;;;;;;10.94;66.88;102474.19;5118592;28;20066;-70
2023/04/17 00:45:35;;;;;;;21.70;12.70;;;;;;;10.95;66.77;102478.53;5120934;28;20043;-70
2023/04/17 00:48:04;;;;;;;22.35;14.02;;;;;;;10.97;66.85;102481.88;5118338;28;20048;-70
2023/04/17 00:50:32;;;;;;;20.83;14.15;;;;;;;10.97;66.71;102481.88;5114661;28;20051;-70
2023/04/17 00:53:00;;;;;;;20.95;13.43;;;;;;;10.97;66.60;102475.66;5120041;28;20139;-70
2023/04/17 00:55:28;;;;;;;21.67;14.10;;;;;;;10.98;66.75;102482.72;5117866;28;20305;-70
2023/04/17 00:57:57;;;;;;;20.40;13.52;;;;;;;10.98;66.62;102475.47;5119935;28;20079;-71
2023/04/17 01:00:26;;;;;;;17.27;11.63;;;;;;;11.00;66.61;102475.28;5115089;28;20086;-70
2023/04/17 01:02:56;;;;;;;18.95;12.98;;;;;;;11.00;66.60;102481.50;5121893;28;20071;-70
2023/04/17 01:05:26;;;;;;;21.77;12.77;;;;;;;10.99;66.50;102469.06;5121482;28;20071;-71
2023/04/17 01:07:54;;;;;;;19.30;13.32;;;;;;;10.99;66.70;102474.47;5118692;28;20043;-70
2023/04/17 01:10:22;;;;;;;24.02;14.32;;;;;;;10.98;66.56;102472.78;5121007;28;20134;-70
2023/04/17 01:13:01;;;;;;;22.38;14.88;;;;;;;10.99;66.50;102470.94;5114110;28;20055;-70
2023/04/17 01:15:30;;;;;;;23.08;13.60;;;;;;;10.93;66.50;102477.88;5118798;28;20458;-70
2023/04/17 01:17:58;;;;;;;20.30;13.15;;;;;;;10.93;66.55;102474.34;5114162;28;20048;-70
2023/04/17 01:20:28;;;;;;;24.13;13.70;;;;;;;10.89;66.57;102478.44;5116126;28;20066;-70
2023/04/17 01:22:56;;;;;;;21.10;13.63;;;;;;;10.90;66.50;102480.94;5121549;28;20051;-69
2023/04/17 01:25:26;;;;;;;24.50;13.93;;;;;;;10.90;66.45;102472.03;5113573;28;20115;-70
2023/04/17 01:27:54;;;;;;;20.50;12.95;;;;;;;10.90;66.56;102480.94;5118372;28;20401;-70
2023/04/17 01:30:22;;;;;;;21.35;13.18;;;;;;;10.87;66.62;102472.41;5110215;28;20043;-70
2023/04/17 01:32:50;;;;;;;23.85;14.10;;;;;;;10.86;66.58;102474.25;5120581;28;20051;-71
2023/04/17 01:35:18;;;;;;;20.48;14.38;;;;;;;10.87;66.61;102488.53;5116615;28;20079;-70
2023/04/17 01:37:46;;;;;;;22.63;14.98;;;;;;;10.87;66.55;102480.47;5105146;28;20051;-70
2023/04/17 01:40:14;;;;;;;22.38;14.93;;;;;;;10.87;66.46;102477.78;5101003;28;20048;-69
2023/04/17 01:42:43;;;;;;;25.98;14.65;;;;;;;10.86;66.63;102476.13;5113400;28;20047;-70
2023/04/17 01:45:11;;;;;;;26.35;14.52;;;;;;;10.85;66.36;102482.50;5117520;28;20082;-70
2023/04/17 01:47:39;;;;;;;22.55;13.75;;;;;;;10.76;66.42;102466.47;5118818;28;20127;-69
2023/04/17 01:50:08;;;;;;;19.27;13.32;;;;;;;10.85;66.53;102485.19;5118538;28;20043;-70
2023/04/17 01:52:36;;;;;;;21.85;14.60;;;;;;;10.84;66.42;102481.69;5112920;28;20043;-69
2023/04/17 01:55:04;;;;;;;21.15;13.23;;;;;;;10.84;66.42;102486.22;5119030;28;20080;-70
2023/04/17 01:57:33;;;;;;;22.20;13.25;;;;;;;10.83;66.29;102480.00;5108948;28;20065;-70
2023/04/17 02:00:06;;;;;;;24.15;14.80;;;;;;;10.84;66.36;102480.84;5118960;28;20043;-70
2023/04/17 02:02:33;;;;;;;22.98;15.30;;;;;;;10.83;66.50;102484.53;5118453;28;20075;-70
2023/04/17 02:05:02;;;;;;;22.98;14.70;;;;;;;10.82;66.52;102483.72;5107087;28;20051;-70
2023/04/17 02:07:29;;;;;;;21.98;13.65;;;;;;;10.81;66.43;102484.72;5120922;28;20043;-71
2023/04/17 02:09:57;;;;;;;19.90;13.98;;;;;;;10.81;66.54;102481.22;5115630;28;20052;-70
2023/04/17 02:12:25;;;;;;;22.58;14.30;;;;;;;10.80;66.44;102483.06;5116682;28;20062;-71
2023/04/17 02:14:52;;;;;;;19.73;13.45;;;;;;;10.80;66.52;102485.75;5117288;28;20114;-70
2023/04/17 02:17:21;;;;;;;23.98;13.23;;;;;;;10.79;66.56;102485.94;5120244;28;20036;-71
2023/04/17 02:19:49;;;;;;;21.63;14.63;;;;;;;10.78;66.32;102485.09;5117612;28;20444;-70
2023/04/17 02:22:17;;;;;;;22.23;13.73;;;;;;;10.76;66.43;102485.28;5113890;28;20134;-71
2023/04/17 02:24:45;;;;;;;21.45;13.80;;;;;;;10.76;66.46;102485.28;5118051;28;20050;-71
2023/04/17 02:27:12;;;;;;;18.52;12.45;;;;;;;10.77;66.46;102488.81;5119628;28;20067;-71
2023/04/17 02:29:40;;;;;;;23.50;13.63;;;;;;;10.76;66.41;102481.75;5112308;28;20103;-71
2023/04/17 02:32:08;;;;;;;28.30;14.40;;;;;;;10.77;66.20;102483.44;5108302;28;20114;-70
2023/04/17 02:34:37;;;;;;;24.20;15.02;;;;;;;10.79;66.30;102478.69;5120368;28;20138;-70
2023/04/17 02:37:05;;;;;;;19.80;13.57;;;;;;;10.79;66.16;102484.09;5110823;28;20047;-70
2023/04/17 02:39:34;;;;;;;20.90;14.05;;;;;;;10.80;66.13;102476.84;5104709;28;20083;-71
2023/04/17 02:42:01;;;;;;;18.75;12.07;;;;;;;10.78;66.35;102479.72;5118338;28;20059;-70
2023/04/17 02:44:29;;;;;;;21.38;12.95;;;;;;;10.76;66.21;102479.06;5092967;28;20068;-70
2023/04/17 02:46:57;;;;;;;20.33;14.27;;;;;;;10.75;66.30;102483.59;5118801;28;20598;-71
2023/04/17 02:49:25;;;;;;;21.13;14.05;;;;;;;10.76;66.33;102484.44;5119455;28;20043;-71
2023/04/17 02:51:54;;;;;;;24.42;13.23;;;;;;;10.76;66.40;102487.13;5116348;28;20048;-70
2023/04/17 02:54:22;;;;;;;23.38;13.70;;;;;;;10.72;66.44;102489.34;5112546;28;20435;-71
2023/04/17 02:56:50;;;;;;;18.40;12.95;;;;;;;10.72;66.59;102492.03;5116959;28;20122;-70
2023/04/17 02:59:17;;;;;;;21.70;13.85;;;;;;;10.72;66.42;102489.34;5111470;28;20043;-70
2023/04/17 03:01:45;;;;;;;22.90;13.60;;;;;;;10.73;66.38;102488.34;5110151;28;20130;-70
2023/04/17 03:04:13;;;;;;;20.63;13.40;;;;;;;10.72;66.47;102497.41;5110259;28;20055;-70
2023/04/17 03:06:41;;;;;;;21.73;13.40;;;;;;;10.73;66.32;102491.03;5094903;28;20044;-70
2023/04/17 03:09:10;;;;;;;23.13;14.18;;;;;;;10.73;66.39;102492.88;5107931;28;20134;-70
2023/04/17 03:11:39;;;;;;;21.23;13.45;;;;;;;10.73;66.18;102493.72;5120084;28;20050;-70
2023/04/17 03:14:06;;;;;;;24.73;13.52;;;;;;;10.75;66.37;102490.84;5119045;28;20074;-70
2023/04/17 03:16:34;;;;;;;23.77;14.57;;;;;;;10.74;66.21;102491.88;5114742;28;20075;-70
2023/04/17 03:19:02;;;;;;;21.58;13.55;;;;;;;10.73;66.19;102496.41;5103967;28;20083;-71
2023/04/17 03:21:30;;;;;;;25.17;13.70;;;;;;;10.71;66.24;102493.06;5094241;28;20074;-70
2023/04/17 03:23:58;;;;;;;24.50;13.85;;;;;;;10.72;66.20;102492.03;5098500;28;20120;-70
2023/04/17 03:26:27;;;;;;;22.95;15.32;;;;;;;10.71;66.25;102490.38;5121962;28;20078;-70
2023/04/17 03:28:54;;;;;;;19.17;13.68;;;;;;;10.71;66.35;102492.22;5114421;28;20050;-70
2023/04/17 03:31:24;;;;;;;22.98;14.93;;;;;;;10.72;66.42;102492.03;5122239;28;20078;-70
2023/04/17 03:33:52;;;;;;;20.95;13.95;;;;;;;10.71;66.26;102493.06;5121860;28;20039;-71
2023/04/17 03:36:20;;;;;;;23.52;13.63;;;;;;;10.71;66.37;102490.38;5121953;28;20052;-70
2023/04/17 03:38:47;;;;;;;24.77;15.82;;;;;;;10.69;66.53;102491.56;5123598;28;20122;-70
2023/04/17 03:41:15;;;;;;;25.13;14.48;;;;;;;10.67;66.55;102483.69;5122149;28;20056;-70
2023/04/17 03:43:44;;;;;;;28.77;16.00;;;;;;;10.64;66.51;102484.06;5118038;28;20054;-70
2023/04/17 03:46:12;;;;;;;25.40;14.93;;;;;;;10.69;66.47;102491.56;5119216;28;20086;-70
2023/04/17 03:48:40;;;;;;;22.15;14.85;;;;;;;10.68;66.43;102476.47;5123755;28;20042;-70
2023/04/17 03:51:08;;;;;;;29.45;16.45;;;;;;;10.67;66.47;102481.00;5118367;28;20043;-70
2023/04/17 03:53:35;;;;;;;23.05;14.68;;;;;;;10.69;66.48;102484.34;5118746;28;20048;-70
2023/04/17 03:56:03;;;;;;;23.38;15.32;;;;;;;10.68;66.50;102488.03;5120134;28;20086;-70
2023/04/17 03:58:31;;;;;;;23.92;15.20;;;;;;;10.70;66.65;102487.88;5114528;28;20048;-70
2023/04/17 04:01:00;;;;;;;20.85;15.35;;;;;;;10.69;66.59;102489.72;5120810;28;20066;-70
2023/04/17 04:03:28;;;;;;;26.58;14.95;;;;;;;10.68;66.37;102484.53;5123497;28;20062;-70
2023/04/17 04:05:57;;;;;;;24.55;15.13;;;;;;;10.68;66.35;102489.91;5121738;28;20052;-70
2023/04/17 04:08:25;;;;;;;20.73;14.43;;;;;;;10.66;66.43;102486.56;5124220;28;20043;-70
2023/04/17 04:10:53;;;;;;;23.20;14.48;;;;;;;10.66;66.59;102483.88;5123034;28;20062;-69
2023/04/17 04:13:20;;;;;;;23.33;14.63;;;;;;;10.67;66.37;102483.69;5114361;28;20559;-70
2023/04/17 04:15:48;;;;;;;23.10;15.70;;;;;;;10.66;66.50;102478.50;5122403;28;20068;-70
2023/04/17 04:18:18;;;;;;;25.55;15.48;;;;;;;10.56;66.68;102472.53;5121225;28;20118;-71
2023/04/17 04:20:45;;;;;;;24.70;16.25;;;;;;;10.64;66.57;102488.59;5109441;28;20058;-71
2023/04/17 04:23:15;;;;;;;22.73;15.55;;;;;;;10.65;66.58;102501.03;5123069;28;20058;-70
2023/04/17 04:25:43;;;;;;;25.80;17.25;;;;;;;10.62;66.66;102486.09;5118770;28;20135;-70
2023/04/17 04:28:12;;;;;;;24.63;16.75;;;;;;;10.62;66.88;102485.25;5119602;28;20078;-71
2023/04/17 04:30:39;;;;;;;28.92;16.13;;;;;;;10.57;66.73;102496.56;5122063;28;20057;-71
2023/04/17 04:33:07;;;;;;;23.70;14.90;;;;;;;10.57;66.93;102498.41;5120782;28;20093;-71
2023/04/17 04:35:36;;;;;;;25.77;16.30;;;;;;;10.56;66.76;102502.94;5115913;28;20040;-70
2023/04/17 04:38:05;;;;;;;25.23;16.67;;;;;;;10.58;67.02;102500.06;5114449;28;20048;-71
2023/04/17 04:40:34;;;;;;;25.80;15.90;;;;;;;10.58;66.98;102508.13;5119556;28;20106;-71
2023/04/17 04:43:03;;;;;;;23.88;16.02;;;;;;;10.58;67.05;102511.66;5122652;28;20111;-71
2023/04/17 04:45:30;;;;;;;24.55;16.30;;;;;;;10.58;66.99;102508.13;5119914;28;20055;-71
2023/04/17 04:47:58;;;;;;;23.42;14.93;;;;;;;10.57;66.79;102507.31;5121677;27;20128;-71
2023/04/17 04:50:26;;;;;;;25.40;16.40;;;;;;;10.56;66.81;102502.09;5112377;28;20039;-70
2023/04/17 04:52:55;;;;;;;26.05;16.38;;;;;;;10.58;66.91;102511.66;5110379;28;20120;-70
2023/04/17 04:55:23;;;;;;;26.02;17.05;;;;;;;10.57;67.08;102515.38;5119078;28;20046;-69
2023/04/17 04:57:52;;;;;;;24.70;16.45;;;;;;;10.56;66.91;102513.69;5118956;28;20058;-68
2023/04/17 05:00:20;;;;;;;25.05;16.25;;;;;;;10.55;66.96;102509.34;5116422;28;20043;-67
2023/04/17 05:02:48;;;;;;;25.60;16.20;;;;;;;10.55;67.00;102511.19;5120700;28;20103;-68
2023/04/17 05:05:15;;;;;;;27.67;17.92;;;;;;;10.54;66.98;102518.41;5121681;28;20043;-67
2023/04/17 05:07:43;;;;;;;26.77;17.92;;;;;;;10.55;66.96;102521.94;5119994;28;20114;-67
2023/04/17 05:10:12;;;;;;;28.02;16.88;;;;;;;10.55;67.10;102522.78;5114697;28;20408;-67
2023/04/17 05:12:41;;;;;;;26.35;16.65;;;;;;;10.56;66.89;102516.38;5116481;28;20044;-67
2023/04/17 05:15:10;;;;;;;26.08;17.40;;;;;;;10.55;66.90;102520.09;5114293;28;20047;-67
2023/04/17 05:17:37;;;;;;;26.25;16.55;;;;;;;10.54;67.18;102522.97;5112720;28;20072;-67
2023/04/17 05:20:08;;;;;;;25.40;16.65;;;;;;;10.53;66.97;102524.81;5111353;28;20113;-68
2023/04/17 05:22:35;;;;;;;28.85;17.45;;;;;;;10.54;67.21;102534.56;5122088;28;20046;-63
2023/04/17 05:25:04;;;;;;;28.73;16.92;;;;;;;10.54;67.15;102536.41;5120388;28;20134;-62
2023/04/17 05:27:33;;;;;;;23.63;16.05;;;;;;;10.54;67.21;102526.47;5115688;28;20054;-63
2023/04/17 05:30:01;;;;;;;27.98;17.45;;;;;;;10.56;67.02;102537.06;5105948;28;20102;-62
2023/04/17 05:32:30;;;;;;;26.88;17.13;;;;;;;10.56;67.08;102535.19;5108917;28;20044;-63
2023/04/17 05:34:57;;;;;;;26.27;17.00;;;;;;;10.55;67.07;102532.69;5118252;28;20043;-64
2023/04/17 05:37:25;;;;;;;28.73;17.65;;;;;;;10.53;66.96;102538.25;5117229;28;20443;-64
2023/04/17 05:39:53;;;;;;;30.15;17.52;;;;;;;10.55;66.97;102535.38;5115736;28;20075;-66
2023/04/17 05:42:21;;;;;;;28.23;16.83;;;;;;;10.54;67.00;102539.94;4750188;28;9999783;-64
2023/04/17 05:44:50;;;;;;;25.88;17.27;;;;;;;10.54;66.88;102539.09;5111023;28;20061;-65
2023/04/17 05:47:18;;;;;;;24.08;16.02;;;;;;;10.53;66.88;102543.63;5117863;28;20602;-65
2023/04/17 05:49:47;;;;;;;23.83;16.02;;;;;;;10.51;66.71;102540.28;5117551;28;20043;-66
2023/04/17 05:52:15;;;;;;;27.45;17.65;;;;;;;10.51;67.26;102542.97;5104882;28;20055;-63
2023/04/17 05:54:43;;;;;;;27.70;16.52;;;;;;;10.51;67.46;102552.88;5105822;28;20067;-64
2023/04/17 05:57:10;;;;;;;28.95;18.67;;;;;;;10.48;67.38;102545.19;5117870;28;20201;-64
2023/04/17 05:59:38;;;;;;;29.25;17.30;;;;;;;10.44;67.59;102550.91;5116481;28;20053;-65
2023/04/17 06:02:08;;;;;;;24.20;17.02;;;;;;;10.43;67.58;102551.94;5109904;28;20313;-64
2023/04/17 06:04:36;;;;;;;29.85;19.67;;;;;;;10.44;67.60;102553.59;5117175;28;20090;-65
2023/04/17 06:07:04;;;;;;;27.60;17.23;;;;;;;10.40;67.45;102552.28;5114441;28;20260;-64
2023/04/17 06:09:32;;;;;;;29.50;19.58;;;;;;;10.41;67.78;102555.81;5117342;28;20047;-64
2023/04/17 06:12:00;;;;;;;29.02;18.88;;;;;;;10.41;67.84;102551.28;5116308;28;20055;-64
2023/04/17 06:14:28;;;;;;;27.05;18.38;;;;;;;10.40;67.61;102563.03;5117133;28;20575;-64
2023/04/17 06:16:56;;;;;;;35.40;19.45;;;;;;;10.36;68.30;102561.75;5108877;28;20179;-68
2023/04/17 06:19:25;;;;;;;32.70;19.08;;;;;;;10.34;68.32;102552.19;5112637;28;20472;-66
2023/04/17 06:21:52;;;;;;;34.60;19.30;;;;;;;10.35;68.19;102565.47;5118123;28;20048;-66
2023/04/17 06:24:20;;;;;;;33.28;19.58;;;;;;;10.38;68.20;102566.97;5115145;28;20047;-66
2023/04/17 06:26:48;;;;;;;30.00;19.33;;;;;;;10.39;68.04;102568.63;5116585;28;20086;-65
2023/04/17 06:29:16;;;;;;;36.05;21.40;;;;;;;10.42;68.06;102570.94;5115885;28;20051;-68
2023/04/17 06:31:43;;;;;;;33.78;20.23;;;;;;;10.43;67.88;102570.75;5113071;28;20501;-65
2023/04/17 06:34:11;;;;;;;30.27;19.77;;;;;;;10.45;67.79;102567.88;5101498;28;20119;-65
2023/04/17 06:36:40;;;;;;;34.30;19.98;;;;;;;10.46;67.71;102571.41;5116653;28;20066;-65
2023/04/17 06:39:08;;;;;;;36.10;20.23;;;;;;;10.44;68.01;102577.78;5109417;28;20067;-64
2023/04/17 06:41:36;;;;;;;34.78;19.83;;;;;;;10.45;67.89;102584.00;5116832;28;20196;-65
2023/04/17 06:44:04;;;;;;;39.03;20.00;;;;;;;10.47;67.59;102583.84;5117601;28;20107;-65
2023/04/17 06:46:32;;;;;;;34.70;20.63;;;;;;;10.37;67.81;102566.13;5114354;28;20043;-65
2023/04/17 06:49:01;;;;;;;33.13;20.88;;;;;;;10.46;67.90;102584.84;5114538;28;20059;-65
2023/04/17 06:51:29;;;;;;;32.50;21.02;;;;;;;10.45;67.53;102584.00;5117041;28;20641;-66
2023/04/17 06:53:59;;;;;;;34.08;20.50;;;;;;;10.46;67.65;102583.00;5105127;28;20069;-65
2023/04/17 06:56:26;;;;;;;34.70;19.17;;;;;;;10.47;67.67;102589.22;5116462;28;20073;-65
2023/04/17 06:58:56;;;;;;;33.38;20.38;;;;;;;10.48;67.77;102591.72;5120526;28;20115;-65
2023/04/17 07:01:26;;;;;;;31.80;19.85;;;;;;;10.49;67.79;102592.56;5119911;28;20443;-65
2023/04/17 07:03:54;;;;;;;31.80;20.80;;;;;;;10.44;67.62;102580.47;5119174;28;20247;-65
2023/04/17 07:06:23;;;;;;;30.25;19.65;;;;;;;10.50;67.57;102586.16;5114045;28;20043;-65
2023/04/17 07:08:50;;;;;;;32.03;19.10;;;;;;;10.50;67.53;102588.84;5105378;28;20048;-66
2023/04/17 07:11:22;;;;;;;30.65;20.30;;;;;;;10.49;67.71;102593.38;5106945;28;20047;-65
2023/04/17 07:13:50;;;;;;;31.25;19.30;;;;;;;10.48;67.58;102601.63;5108335;28;20146;-65
2023/04/17 07:16:20;;;;;;;31.92;19.80;;;;;;;10.47;67.51;102599.97;5116113;28;20056;-65
2023/04/17 07:18:48;;;;;;;30.20;19.45;;;;;;;10.46;67.76;102607.19;5118987;28;20052;-62
2023/04/17 07:21:15;;;;;;;30.98;20.05;;;;;;;10.44;67.73;102604.69;5119371;28;20067;-62
2023/04/17 07:23:43;;;;;;;31.70;20.35;;;;;;;10.45;67.58;102608.19;5120748;28;20631;-63
2023/04/17 07:26:11;;;;;;;30.20;20.02;;;;;;;10.44;67.62;102610.06;5116222;28;20051;-66
2023/04/17 07:28:41;;;;;;;32.08;19.67;;;;;;;10.41;67.59;102609.56;5118606;28;20097;-64
2023/04/17 07:31:08;;;;;;;33.22;20.63;;;;;;;10.46;67.81;102617.09;5125844;28;20155;-64
2023/04/17 07:33:37;;;;;;;29.33;19.23;;;;;;;10.43;67.65;102610.22;5112656;28;20048;-64
2023/04/17 07:36:10;;;;;;;26.20;18.77;;;;;;;10.45;67.70;102618.94;5120191;28;20210;-64
2023/04/17 07:38:37;;;;;;;28.75;18.52;;;;;;;10.47;67.67;102624.16;5121871;28;20044;-64
2023/04/17 07:41:07;;;;;;;28.17;18.65;;;;;;;10.46;67.53;102623.31;5122146;28;20050;-64
2023/04/17 07:43:35;;;;;;;29.08;18.20;;;;;;;10.47;67.41;102622.31;5120423;28;20486;-63
2023/04/17 07:46:04;;;;;;;28.60;18.88;;;;;;;10.48;67.61;102623.13;5123063;28;20048;-68
2023/04/17 07:48:32;;;;;;;30.67;19.30;;;;;;;10.48;67.34;102621.28;5122372;28;20069;-65
2023/04/17 07:51:00;;;;;;;23.75;17.67;;;;;;;10.48;67.38;102617.75;5122649;28;20054;-65
2023/04/17 07:53:28;;;;;;;29.50;18.85;;;;;;;10.49;67.35;102622.97;5121573;28;20547;-65
2023/04/17 07:55:57;;;;;;;27.48;17.75;;;;;;;10.48;67.46;102620.44;5122793;28;20101;-65
2023/04/17 07:58:25;;;;;;;26.92;18.45;;;;;;;10.49;67.20;102619.44;5119171;28;20051;-65
2023/04/17 08:00:53;;;;;;;25.83;18.20;;;;;;;10.46;67.41;102620.63;5120611;28;20049;-65
2023/04/17 08:03:23;;;;;;;29.42;18.75;;;;;;;10.47;67.50;102624.16;5119920;28;20043;-65
2023/04/17 08:05:52;;;;;;;28.35;18.25;;;;;;;10.47;67.51;102630.38;5121741;28;20054;-65
2023/04/17 08:08:22;;;;;;;29.00;18.85;;;;;;;10.47;67.71;102630.38;5113029;28;20048;-65
2023/04/17 08:10:51;;;;;;;27.40;17.88;;;;;;;10.48;67.25;102628.50;5120438;28;20140;-65
2023/04/17 08:13:18;;;;;;;29.17;18.63;;;;;;;10.46;67.03;102628.69;5117245;28;20485;-65
2023/04/17 08:15:46;;;;;;;25.08;17.98;;;;;;;10.44;67.38;102622.66;5105288;28;20533;-65
2023/04/17 08:18:14;;;;;;;26.70;17.80;;;;;;;10.45;66.92;102632.41;5111815;28;20115;-65
2023/04/17 08:20:43;;;;;;;26.80;17.92;;;;;;;10.36;67.13;102631.63;5111896;28;20071;-66
2023/04/17 08:23:11;;;;;;;28.80;18.67;;;;;;;10.43;66.99;102635.25;5120941;28;20044;-65
2023/04/17 08:25:39;;;;;;;26.35;18.63;;;;;;;10.46;67.10;102634.06;5118634;28;20043;-65
2023/04/17 08:28:06;;;;;;;26.90;18.60;;;;;;;10.47;66.84;102632.22;5119941;28;20407;-65
2023/04/17 08:30:34;;;;;;;24.88;17.33;;;;;;;10.49;66.63;102636.41;5121601;28;20079;-65
2023/04/17 08:33:02;;;;;;;29.35;17.95;;;;;;;10.47;66.97;102625.00;5118626;28;20044;-65
2023/04/17 08:35:30;;;;;;;25.73;18.35;;;;;;;10.46;66.82;102628.69;5118378;28;20055;-65
2023/04/17 08:37:59;;;;;;;28.05;18.73;;;;;;;10.49;66.82;102624.81;5122801;28;20046;-65
2023/04/17 08:40:27;;;;;;;27.02;18.35;;;;;;;10.51;66.83;102637.06;5122715;28;20055;-65
2023/04/17 08:42:55;;;;;;;25.60;17.45;;;;;;;10.53;66.64;102632.34;5116067;28;20097;-65
2023/04/17 08:45:23;;;;;;;25.60;17.67;;;;;;;10.52;66.78;102635.22;5120465;28;20559;-65
2023/04/17 08:47:51;;;;;;;27.98;17.38;;;;;;;10.58;66.74;102637.19;5117044;28;20043;-65
2023/04/17 08:50:20;;;;;;;25.08;17.42;;;;;;;10.71;66.30;102643.66;5122492;28;20051;-65
2023/04/17 08:52:51;;;;;;;27.95;19.17;;;;;;;10.74;66.09;102642.47;5114635;28;20096;-65
2023/04/17 08:55:23;;;;;;;27.27;17.45;;;;;;;10.77;66.22;102636.72;5116746;28;20387;-66
2023/04/17 08:57:59;;;;;;;28.48;17.42;;;;;;;10.76;65.95;102632.34;5121957;28;20472;-65
2023/04/17 09:00:28;;;;;;;22.15;16.58;;;;;;;10.76;66.01;102629.66;5116659;28;20556;-65
2023/04/17 09:02:57;;;;;;;27.63;17.75;;;;;;;10.77;66.09;102642.09;5122570;28;20111;-65
2023/04/17 09:05:29;;;;;;;26.65;18.08;;;;;;;10.76;66.00;102632.34;5112937;28;20048;-64
2023/04/17 09:08:10;;;;;;;24.90;16.95;;;;;;;10.72;66.18;102631.03;5116383;28;20056;-65
2023/04/17 09:10:41;;;;;;;26.25;16.60;;;;;;;10.73;66.11;102640.78;5113558;28;20503;-65
2023/04/17 09:13:11;;;;;;;26.77;18.38;;;;;;;10.70;66.14;102639.28;5105910;28;20194;-64
2023/04/17 09:15:38;;;;;;;27.50;18.40;;;;;;;10.71;66.35;102640.13;5118762;28;20052;-64
2023/04/17 09:18:21;;;;;;;27.23;18.67;;;;;;;10.70;66.31;102644.66;5122283;28;20079;-64
2023/04/17 09:20:50;;;;;;;30.58;18.67;;;;;;;10.70;66.32;102646.50;5116559;28;20048;-64
2023/04/17 09:23:18;;;;;;;28.75;17.90;;;;;;;10.71;66.33;102651.72;5119821;28;20130;-64
2023/04/17 09:26:06;;;;;;;24.85;18.42;;;;;;;10.72;66.24;102652.56;5120899;28;20135;-65
2023/04/17 09:28:35;;;;;;;26.52;17.73;;;;;;;10.72;66.31;102648.00;5121264;28;20162;-64
2023/04/17 09:31:05;;;;;;;25.88;18.13;;;;;;;10.65;66.47;102633.59;5106805;28;20067;-64
2023/04/17 09:33:33;;;;;;;26.60;17.88;;;;;;;10.71;66.39;102646.34;5118779;28;20039;-65
2023/04/17 09:36:21;;;;;;;29.80;19.60;;;;;;;10.70;66.28;102643.81;5119205;28;20052;-65
2023/04/17 09:38:50;;;;;;;27.17;18.50;;;;;;;10.71;66.37;102643.66;5111212;28;20111;-65
2023/04/17 09:41:27;;;;;;;29.33;18.42;;;;;;;10.72;66.34;102636.41;5119196;28;20048;-69
2023/04/17 09:43:59;;;;;;;24.83;17.58;;;;;;;10.76;66.34;102641.25;5114561;28;20075;-65
2023/04/17 09:46:36;;;;;;;26.27;18.42;;;;;;;10.88;65.74;102628.22;5103602;28;20044;-66
2023/04/17 09:49:14;;;;;;;23.73;16.92;;;;;;;11.11;65.43;102638.97;5113569;28;20050;-66
2023/04/17 09:51:42;;;;;;;25.40;17.42;;;;;;;11.29;64.33;102620.63;5117005;28;20044;-66
2023/04/17 09:54:11;;;;;;;24.13;17.65;;;;;;;11.55;63.77;102622.06;5117906;28;20111;-66
2023/04/17 09:56:40;;;;;;;30.20;18.95;;;;;;;11.79;62.82;102634.44;5110160;28;20044;-67
2023/04/17 09:59:08;;;;;;;29.65;19.20;;;;;;;12.00;62.06;102635.38;5109126;28;20107;-66
2023/04/17 10:01:38;;;;;;;28.40;18.05;;;;;;;12.22;61.48;102638.09;5105996;28;20112;-66
2023/04/17 10:04:06;;;;;;;31.73;20.52;;;;;;;12.39;61.01;102631.47;5104572;28;20073;-66
2023/04/17 10:06:35;;;;;;;26.02;18.25;;;;;;;12.56;60.28;102623.97;5117313;28;20057;-66
2023/04/17 10:09:04;;;;;;;27.15;18.38;;;;;;;12.73;59.68;102624.56;5114869;28;20310;-66
2023/04/17 10:11:36;;;;;;;28.00;17.05;;;;;;;12.84;58.96;102619.47;5098508;28;20048;-66
2023/04/17 10:14:10;;;;;;;26.60;17.70;;;;;;;12.92;59.10;102616.66;5088634;28;20070;-66
2023/04/17 10:16:41;;;;;;;24.98;17.17;;;;;;;13.00;58.61;102615.66;5096599;28;20139;-67
2023/04/17 10:19:26;;;;;;;27.08;18.40;;;;;;;13.07;58.53;102623.81;5097778;28;20055;-66
2023/04/17 10:22:31;;;;;;;28.92;17.45;;;;;;;13.08;58.29;102620.09;5114229;28;20063;-66
2023/04/17 10:25:18;;;;;;;30.48;17.92;;;;;;;13.10;58.36;102621.56;5032263;28;20148;-65
2023/04/17 10:28:05;;;;;;;27.73;18.42;;;;;;;13.02;58.70;102629.81;5040112;28;20533;-68
2023/04/17 10:30:53;;;;;;;26.58;17.02;;;;;;;13.05;58.54;102624.03;5035962;28;20049;-66
2023/04/17 10:33:24;;;;;;;28.90;17.02;;;;;;;12.95;58.93;102616.25;5041368;28;20041;-64
2023/04/17 10:35:53;;;;;;;28.45;18.55;;;;;;;12.81;59.68;102619.03;5039870;28;20121;-66
2023/04/17 10:38:34;;;;;;;29.10;17.60;;;;;;;12.64;59.69;102631.94;5040541;28;20045;-64
2023/04/17 10:41:04;;;;;;;29.67;18.08;;;;;;;12.48;60.58;102630.31;5039565;28;20152;-65
2023/04/17 10:43:32;;;;;;;28.65;18.80;;;;;;;12.36;61.21;102619.19;5036544;28;20625;-66
2023/04/17 10:46:08;;;;;;;27.38;17.73;;;;;;;12.24;61.67;102622.56;5032516;28;20045;-67
2023/04/17 10:48:39;;;;;;;27.67;17.05;;;;;;;12.18;61.25;102631.41;5039838;28;20047;-67
2023/04/17 10:51:42;;;;;;;26.73;18.10;;;;;;;12.10;61.84;102624.31;5039482;28;20253;-68
2023/04/17 10:54:12;;;;;;;26.20;17.33;;;;;;;12.05;62.13;102627.56;5039323;28;20053;-69
2023/04/17 10:56:41;;;;;;;28.50;19.10;;;;;;;12.00;62.18;102621.91;5040211;28;20045;-68
2023/04/17 10:59:10;;;;;;;28.73;18.65;;;;;;;11.92;62.26;102607.69;5037370;28;20067;-67
2023/04/17 11:01:56;;;;;;;29.75;18.95;;;;;;;11.94;62.52;102617.25;5088144;27;20073;-64
2023/04/17 11:04:27;;;;;;;30.15;18.27;;;;;;;11.93;62.52;102617.44;5115956;28;20036;-64
2023/04/17 11:06:56;;;;;;;25.98;17.10;;;;;;;11.93;62.72;102623.66;5113953;27;20086;-65
2023/04/17 11:09:25;;;;;;;29.00;17.23;;;;;;;11.92;62.73;102613.91;5117944;28;20044;-65
2023/04/17 11:11:53;;;;;;;23.48;16.85;;;;;;;11.91;63.15;102601.47;5116853;28;20103;-64
2023/04/17 11:14:23;;;;;;;28.00;16.85;;;;;;;11.92;62.94;102607.69;5119344;28;20110;-65
2023/04/17 11:16:52;;;;;;;23.95;16.75;;;;;;;11.91;62.92;102608.72;5107823;28;20241;-65
2023/04/17 11:19:21;;;;;;;27.02;16.67;;;;;;;11.90;63.06;102598.97;5113743;28;20043;-64